Time;durP1;ratioP1;P1;durP2;ratioP2;P2;SDS_P1;SDS_P2;PMS_P1;PMS_P2;Temp;Humidity;BMP_temperature;BMP_pressure;BME280_temperature;BME280_humidity;BME280_pressure;Samples;Min_cycle;Max_cycle;Signal;HPM_P1;HPM_P2
2021/12/08 00:01:18;;;;;;;1.35;1.27;;;22.10;44.50;;;;;;5054085;28;20655;-68
2021/12/08 00:03:44;;;;;;;1.20;1.10;;;22.10;44.50;;;;;;5036098;28;20246;-68
2021/12/08 00:06:12;;;;;;;1.30;1.20;;;22.10;44.50;;;;;;5036034;28;20182;-68
2021/12/08 00:08:38;;;;;;;1.50;1.30;;;22.10;45.20;;;;;;5053600;28;20171;-67
2021/12/08 00:13:51;;;;;;;0.98;0.98;;;22.20;44.60;;;;;;5052459;28;20209;-67
2021/12/08 00:16:17;;;;;;;1.30;0.90;;;22.10;44.50;;;;;;5052642;28;20221;-68
2021/12/08 00:18:48;;;;;;;1.33;1.23;;;22.10;44.60;;;;;;5035886;28;20297;-67
2021/12/08 00:21:17;;;;;;;1.35;1.25;;;22.20;44.50;;;;;;5036213;28;20273;-68
2021/12/08 00:23:44;;;;;;;1.30;1.20;;;22.10;44.50;;;;;;5052501;28;20275;-68
2021/12/08 00:26:10;;;;;;;1.15;1.05;;;22.20;44.50;;;;;;5053547;28;20182;-67
2021/12/08 00:28:36;;;;;;;1.17;1.08;;;22.10;44.40;;;;;;5052226;28;20194;-67
2021/12/08 00:31:05;;;;;;;1.45;1.17;;;22.10;44.40;;;;;;5052227;28;20186;-67
2021/12/08 00:33:32;;;;;;;1.33;1.20;;;22.20;44.40;;;;;;5052200;28;20256;-67
2021/12/08 00:36:02;;;;;;;1.10;1.00;;;22.10;44.30;;;;;;5051292;28;20213;-67
2021/12/08 00:38:29;;;;;;;1.42;1.33;;;22.10;44.30;;;;;;5053081;28;20279;-67
2021/12/08 00:40:54;;;;;;;1.30;1.02;;;22.10;44.40;;;;;;5053272;28;20179;-68
2021/12/08 00:43:22;;;;;;;2.05;1.33;;;22.10;44.30;;;;;;5052161;28;20202;-68
2021/12/08 00:45:49;;;;;;;1.30;1.17;;;22.20;44.40;;;;;;5053268;28;20208;-67
2021/12/08 00:48:16;;;;;;;1.98;1.23;;;22.10;44.40;;;;;;5035501;28;20214;-67
2021/12/08 00:50:42;;;;;;;1.20;1.10;;;22.10;44.30;;;;;;5051855;28;20182;-68
2021/12/08 00:53:09;;;;;;;1.15;1.05;;;22.20;44.40;;;;;;5051751;28;20224;-67
2021/12/08 00:55:36;;;;;;;2.38;1.13;;;22.10;44.40;;;;;;5035163;28;20171;-67
2021/12/08 00:58:03;;;;;;;1.33;1.15;;;22.10;44.40;;;;;;5035253;28;20280;-67
2021/12/08 01:00:34;;;;;;;1.20;1.10;;;22.20;44.50;;;;;;5051881;28;20211;-68
2021/12/08 01:03:01;;;;;;;1.67;1.10;;;22.20;44.50;;;;;;5035189;28;20306;-67
2021/12/08 01:05:40;;;;;;;1.00;0.95;;;22.10;44.40;;;;;;5051912;28;20251;-67
2021/12/08 01:08:07;;;;;;;1.17;1.08;;;22.20;44.50;;;;;;5067901;28;20209;-68
2021/12/08 01:10:36;;;;;;;1.23;1.13;;;22.10;44.40;;;;;;5035235;28;20225;-68
2021/12/08 01:13:08;;;;;;;1.10;1.00;;;22.10;44.40;;;;;;5037273;28;20276;-67
2021/12/08 01:15:37;;;;;;;2.08;1.40;;;22.10;44.40;;;;;;5052779;28;20182;-67
2021/12/08 01:18:03;;;;;;;1.17;1.00;;;22.10;44.30;;;;;;5034843;28;20186;-67
2021/12/08 01:20:29;;;;;;;1.20;1.10;;;22.10;44.30;;;;;;5035019;28;20210;-67
2021/12/08 01:22:55;;;;;;;1.17;1.08;;;22.10;44.40;;;;;;5051707;28;20552;-67
2021/12/08 01:25:21;;;;;;;1.30;1.15;;;22.20;44.40;;;;;;5049888;28;20179;-67
2021/12/08 01:27:47;;;;;;;1.13;1.02;;;22.10;44.40;;;;;;5034683;28;20189;-67
2021/12/08 01:30:13;;;;;;;0.98;0.93;;;22.10;44.20;;;;;;5034696;28;20193;-68
2021/12/08 01:32:39;;;;;;;0.90;0.90;;;22.10;44.40;;;;;;5034488;28;20189;-68
2021/12/08 01:35:08;;;;;;;1.25;0.90;;;22.10;44.30;;;;;;5034660;28;20186;-67
2021/12/08 01:37:34;;;;;;;1.40;1.30;;;22.10;44.40;;;;;;5034299;28;20186;-67
2021/12/08 01:40:04;;;;;;;0.98;0.98;;;22.10;44.40;;;;;;5034755;28;20229;-68
2021/12/08 01:42:35;;;;;;;0.80;0.80;;;22.20;44.40;;;;;;5050969;28;20270;-67
2021/12/08 01:47:48;;;;;;;1.02;0.80;;;22.10;44.40;;;;;;5033881;28;20193;-67
2021/12/08 01:50:14;;;;;;;0.90;0.90;;;22.10;44.40;;;;;;5034576;28;20194;-68
2021/12/08 01:52:40;;;;;;;1.15;0.98;;;22.20;44.40;;;;;;5034544;28;20186;-67
2021/12/08 01:55:09;;;;;;;1.23;1.10;;;22.10;44.40;;;;;;5034513;28;20183;-67
2021/12/08 01:57:38;;;;;;;1.40;1.30;;;22.10;44.40;;;;;;5017967;28;20274;-67
2021/12/08 02:00:16;;;;;;;1.00;0.90;;;22.10;44.40;;;;;;5034589;28;20213;-67
2021/12/08 02:05:21;;;;;;;1.42;1.13;;;22.10;44.30;;;;;;5089714;28;20204;-71
2021/12/08 02:07:47;;;;;;;1.20;1.10;;;22.10;44.40;;;;;;5091219;28;20178;-72
2021/12/08 02:10:13;;;;;;;0.90;0.90;;;22.10;44.40;;;;;;5107988;28;20211;-72
2021/12/08 02:12:41;;;;;;;0.98;0.98;;;22.10;44.40;;;;;;5074306;28;20194;-72
2021/12/08 02:15:12;;;;;;;0.95;0.90;;;22.10;44.40;;;;;;5087539;28;20201;-71
2021/12/08 02:17:39;;;;;;;0.80;0.80;;;22.10;44.40;;;;;;5070543;28;20696;-72
2021/12/08 02:20:09;;;;;;;0.82;0.80;;;22.10;44.40;;;;;;5071879;28;20237;-72
2021/12/08 02:22:35;;;;;;;0.90;0.90;;;22.10;44.40;;;;;;5087689;28;20176;-72
2021/12/08 02:25:01;;;;;;;1.00;0.90;;;22.10;44.40;;;;;;5087742;28;20201;-72
2021/12/08 02:27:27;;;;;;;1.02;1.02;;;22.10;44.40;;;;;;5070720;28;20186;-71
2021/12/08 02:30:03;;;;;;;1.02;1.02;;;22.20;44.50;;;;;;5087528;28;20235;-71
2021/12/08 02:48:41;;;;;;;0.90;0.90;;;22.10;44.80;;;;;;5059492;28;20208;-71
2021/12/08 02:51:07;;;;;;;0.98;0.90;;;22.10;44.50;;;;;;5070543;28;20185;-72
2021/12/08 02:53:34;;;;;;;1.00;0.90;;;22.10;44.40;;;;;;5071837;28;20221;-72
2021/12/08 02:55:59;;;;;;;1.02;1.02;;;22.10;44.40;;;;;;5070568;28;20284;-72
2021/12/08 02:58:25;;;;;;;0.98;0.88;;;22.10;44.40;;;;;;5070421;28;20218;-72
2021/12/08 03:01:01;;;;;;;0.90;0.90;;;22.20;44.50;;;;;;5091090;28;20281;-72
2021/12/08 03:03:27;;;;;;;0.88;0.75;;;22.20;44.50;;;;;;5056996;28;20758;-72
2021/12/08 03:05:53;;;;;;;1.10;0.85;;;22.20;44.50;;;;;;5090908;28;20280;-72
2021/12/08 03:08:19;;;;;;;0.90;0.90;;;22.20;44.50;;;;;;5090542;28;20296;-72
2021/12/08 03:10:51;;;;;;;0.80;0.80;;;22.10;44.40;;;;;;5073966;28;20264;-71
2021/12/08 03:13:18;;;;;;;0.98;0.98;;;22.10;44.50;;;;;;5060431;28;20193;-71
2021/12/08 03:15:45;;;;;;;0.90;0.90;;;22.10;44.50;;;;;;5094025;28;20284;-72
2021/12/08 03:18:11;;;;;;;1.25;0.90;;;22.20;44.60;;;;;;5077180;28;20185;-72
2021/12/08 03:20:39;;;;;;;0.98;0.88;;;22.20;44.60;;;;;;5093887;28;20208;-72
2021/12/08 03:23:20;;;;;;;0.82;0.73;;;22.20;44.60;;;;;;5093755;28;20231;-71
2021/12/08 03:25:55;;;;;;;0.98;0.90;;;22.10;44.50;;;;;;5093494;28;20668;-71
2021/12/08 03:28:26;;;;;;;0.85;0.85;;;22.10;44.50;;;;;;5093599;28;20188;-71
2021/12/08 03:33:25;;;;;;;0.93;0.93;;;22.20;44.60;;;;;;5094832;28;20239;-71
2021/12/08 03:35:51;;;;;;;1.00;1.00;;;22.10;44.50;;;;;;5093743;28;20284;-72
2021/12/08 03:38:20;;;;;;;1.42;1.30;;;22.10;44.50;;;;;;5076858;28;20220;-71
2021/12/08 03:40:48;;;;;;;0.88;0.88;;;22.20;44.50;;;;;;5093549;28;20698;-72
2021/12/08 03:43:14;;;;;;;0.80;0.80;;;22.10;44.50;;;;;;5076941;28;20296;-71
2021/12/08 03:45:48;;;;;;;1.05;0.98;;;22.10;45.10;;;;;;5093581;28;20199;-71
2021/12/08 03:48:44;;;;;;;0.90;0.90;;;22.20;44.50;;;;;;5093399;28;20156;-71
2021/12/08 03:51:11;;;;;;;1.10;0.98;;;22.20;44.60;;;;;;5093531;28;20173;-71
2021/12/08 03:53:37;;;;;;;0.93;0.93;;;22.10;44.50;;;;;;5076391;28;20296;-71
2021/12/08 03:56:04;;;;;;;1.05;0.98;;;22.10;44.60;;;;;;5076531;28;20230;-73
2021/12/08 03:58:30;;;;;;;0.90;0.90;;;22.10;44.50;;;;;;5092664;28;20543;-72
2021/12/08 04:00:58;;;;;;;0.70;0.70;;;22.10;44.60;;;;;;5110298;28;20188;-72
2021/12/08 04:03:29;;;;;;;0.80;0.80;;;22.20;44.60;;;;;;5092979;28;20204;-72
2021/12/08 04:05:58;;;;;;;1.00;1.00;;;22.20;44.70;;;;;;5093304;28;20177;-72
2021/12/08 04:08:34;;;;;;;1.20;1.10;;;22.20;44.60;;;;;;5093871;28;20185;-72
2021/12/08 04:11:04;;;;;;;1.13;1.02;;;22.10;44.50;;;;;;5093216;28;20172;-72
2021/12/08 04:13:44;;;;;;;1.05;1.02;;;22.20;44.60;;;;;;5109727;28;20199;-72
2021/12/08 04:16:15;;;;;;;1.10;1.00;;;22.20;44.60;;;;;;5092813;28;20173;-72
2021/12/08 04:18:41;;;;;;;0.80;0.80;;;22.10;44.60;;;;;;5075667;28;20693;-72
2021/12/08 04:21:09;;;;;;;0.80;0.80;;;22.10;44.60;;;;;;5092781;28;20169;-72
2021/12/08 04:23:38;;;;;;;0.95;0.93;;;22.10;44.60;;;;;;5092939;28;20239;-73
2021/12/08 04:26:31;;;;;;;0.82;0.82;;;22.10;44.70;;;;;;5093917;28;20177;-72
2021/12/08 04:28:58;;;;;;;0.70;0.70;;;22.10;44.70;;;;;;5090750;28;20185;-71
2021/12/08 04:31:30;;;;;;;1.20;1.10;;;22.10;44.70;;;;;;5092914;28;20181;-72
2021/12/08 04:34:02;;;;;;;1.02;0.93;;;22.10;44.70;;;;;;5092404;28;20233;-72
2021/12/08 04:36:38;;;;;;;1.10;1.10;;;22.10;44.60;;;;;;5092449;28;20212;-72
2021/12/08 04:39:16;;;;;;;0.90;0.90;;;22.10;44.70;;;;;;5109122;28;20299;-71
2021/12/08 04:41:48;;;;;;;1.02;0.93;;;22.10;44.60;;;;;;5075887;28;20172;-72
2021/12/08 05:07:13;;;;;;;0.90;0.90;;;22.10;44.80;;;;;;5091898;28;20226;-71
2021/12/08 05:08:56;;;;;;;0.80;0.80;;;22.10;44.70;;;;;;5083485;28;20693;-71
2021/12/08 05:11:28;;;;;;;1.08;0.98;;;22.20;44.80;;;;;;5108833;28;20211;-72
2021/12/08 05:14:19;;;;;;;0.98;0.75;;;22.10;44.70;;;;;;5091582;28;20695;-72
2021/12/08 05:16:50;;;;;;;0.80;0.80;;;22.10;44.80;;;;;;5093049;28;20222;-72
2021/12/08 05:19:20;;;;;;;0.80;0.80;;;22.10;44.70;;;;;;5092740;28;20208;-72
2021/12/08 05:22:16;;;;;;;0.70;0.70;;;22.10;44.70;;;;;;5091389;28;20700;-72
2021/12/08 05:24:48;;;;;;;0.80;0.80;;;22.10;45.10;;;;;;5074643;28;20205;-72
2021/12/08 05:27:34;;;;;;;0.90;0.90;;;22.10;44.80;;;;;;5074539;28;20189;-72
2021/12/08 05:30:09;;;;;;;0.70;0.70;;;22.20;44.80;;;;;;5092790;28;20577;-72
2021/12/08 05:32:36;;;;;;;0.73;0.73;;;22.10;44.80;;;;;;5091909;28;20208;-71
2021/12/08 05:35:07;;;;;;;0.70;0.70;;;22.10;44.80;;;;;;5074430;28;20204;-71
2021/12/08 05:37:33;;;;;;;0.93;0.85;;;22.10;44.70;;;;;;5091294;28;20252;-71
2021/12/08 05:39:59;;;;;;;1.17;1.08;;;22.10;44.70;;;;;;5091351;28;20311;-72
2021/12/08 05:42:35;;;;;;;1.10;1.10;;;22.20;44.80;;;;;;5074911;28;20267;-71
2021/12/08 05:45:06;;;;;;;0.75;0.75;;;22.10;44.80;;;;;;5074737;28;20227;-71
2021/12/08 05:47:32;;;;;;;0.80;0.80;;;22.10;44.80;;;;;;5091212;28;20177;-71
2021/12/08 05:49:58;;;;;;;0.70;0.70;;;22.10;44.80;;;;;;5088231;28;20197;-72
2021/12/08 05:52:25;;;;;;;1.20;1.10;;;22.10;44.80;;;;;;5074273;28;20193;-71
2021/12/08 05:54:53;;;;;;;1.20;1.10;;;22.10;44.80;;;;;;5091182;28;20687;-72
2021/12/08 05:57:30;;;;;;;1.30;1.20;;;22.10;44.80;;;;;;5091304;28;20185;-73
2021/12/08 05:59:58;;;;;;;1.10;1.10;;;22.20;44.90;;;;;;5108348;28;20211;-72
2021/12/08 06:02:31;;;;;;;1.48;1.30;;;22.10;44.80;;;;;;5108372;28;20185;-72
2021/12/08 06:05:00;;;;;;;1.70;1.60;;;22.10;44.80;;;;;;5108202;28;20239;-72
2021/12/08 06:07:26;;;;;;;1.63;1.52;;;22.20;44.90;;;;;;5091090;28;20556;-71
2021/12/08 06:10:06;;;;;;;2.13;1.77;;;22.10;44.80;;;;;;5091051;28;20555;-72
2021/12/08 06:12:32;;;;;;;1.85;1.75;;;22.10;44.80;;;;;;5091074;28;20197;-72
2021/12/08 06:14:59;;;;;;;2.40;2.00;;;22.10;44.80;;;;;;5078002;28;20204;-73
2021/12/08 06:17:29;;;;;;;1.80;1.63;;;22.10;44.80;;;;;;5074359;28;20181;-71
2021/12/08 06:19:57;;;;;;;1.60;1.50;;;22.10;44.90;;;;;;5091277;28;20258;-72
2021/12/08 06:22:27;;;;;;;2.00;1.58;;;22.10;44.80;;;;;;5074088;28;20187;-72
2021/12/08 06:24:53;;;;;;;1.73;1.63;;;22.20;45.00;;;;;;5090813;28;20220;-72
2021/12/08 06:27:19;;;;;;;1.63;1.52;;;22.10;44.90;;;;;;5091121;28;20235;-72
2021/12/08 06:29:49;;;;;;;1.60;1.50;;;22.20;44.90;;;;;;5090723;28;20184;-72
2021/12/08 06:32:15;;;;;;;2.25;1.70;;;22.20;45.00;;;;;;5073979;28;20268;-72
2021/12/08 06:34:50;;;;;;;2.15;1.95;;;22.10;44.90;;;;;;5093247;28;20204;-72
2021/12/08 06:37:36;;;;;;;2.50;2.13;;;22.10;44.90;;;;;;5094877;28;20164;-72
2021/12/08 06:40:36;;;;;;;1.95;1.80;;;22.10;44.90;;;;;;5095932;28;20239;-72
2021/12/08 06:43:07;;;;;;;2.10;1.90;;;22.10;44.90;;;;;;5076781;28;20197;-72
2021/12/08 06:45:40;;;;;;;2.10;1.90;;;22.10;44.90;;;;;;5111397;28;20192;-72
2021/12/08 06:48:14;;;;;;;2.00;1.80;;;22.10;44.90;;;;;;5077722;28;20181;-72
2021/12/08 06:50:53;;;;;;;2.17;1.80;;;22.10;44.90;;;;;;5077575;28;20268;-72
2021/12/08 06:53:19;;;;;;;2.38;1.92;;;22.10;44.90;;;;;;5094346;28;20675;-72
2021/12/08 06:55:52;;;;;;;2.20;1.90;;;22.10;44.90;;;;;;5094416;28;20181;-72
2021/12/08 06:58:24;;;;;;;2.13;1.92;;;22.20;44.90;;;;;;5077281;28;20192;-72
2021/12/08 07:03:50;;;;;;;2.90;2.00;;;22.20;45.00;;;;;;5095136;28;20220;-72
2021/12/08 07:06:43;;;;;;;4.05;2.50;;;22.20;45.00;;;;;;5094041;28;20644;-72
2021/12/08 07:09:21;;;;;;;3.28;2.22;;;22.10;44.90;;;;;;5076918;28;20221;-72
2021/12/08 07:11:51;;;;;;;2.40;2.20;;;22.10;44.90;;;;;;5094107;28;20181;-72
2021/12/08 07:14:18;;;;;;;3.30;2.25;;;22.10;45.00;;;;;;5093843;28;20251;-72
2021/12/08 07:16:53;;;;;;;2.22;1.85;;;22.10;44.90;;;;;;5093747;28;20189;-72
2021/12/08 07:19:39;;;;;;;2.28;2.08;;;22.10;44.90;;;;;;5094102;28;20242;-72
2021/12/08 07:22:08;;;;;;;2.13;1.83;;;22.10;44.90;;;;;;5094127;28;20628;-72
2021/12/08 07:24:40;;;;;;;2.45;2.00;;;22.20;45.00;;;;;;5093756;28;20232;-72
2021/12/08 07:27:12;;;;;;;2.40;1.95;;;22.20;45.00;;;;;;5077232;28;20192;-72
2021/12/08 07:29:42;;;;;;;2.35;2.10;;;22.10;44.90;;;;;;5094793;28;20180;-74
2021/12/08 07:32:14;;;;;;;3.28;1.90;;;22.20;45.00;;;;;;5093445;28;20267;-72
2021/12/08 07:34:41;;;;;;;2.83;2.08;;;22.10;44.90;;;;;;5093537;28;20205;-71
2021/12/08 07:37:15;;;;;;;2.42;2.00;;;22.20;45.00;;;;;;5093836;28;20191;-72
2021/12/08 07:39:47;;;;;;;2.70;2.20;;;22.10;45.00;;;;;;5093484;28;20231;-72
2021/12/08 07:42:27;;;;;;;2.15;1.95;;;22.10;45.00;;;;;;5098187;28;20282;-71
2021/12/08 07:44:59;;;;;;;2.15;1.95;;;22.10;45.00;;;;;;5096436;28;20417;-72
2021/12/08 07:47:27;;;;;;;2.58;1.77;;;22.10;45.00;;;;;;5096607;28;20172;-70
2021/12/08 07:50:11;;;;;;;2.42;1.88;;;22.10;45.00;;;;;;5096610;28;20215;-72
2021/12/08 07:52:43;;;;;;;1.45;1.35;;;22.10;45.00;;;;;;5096806;28;20200;-72
2021/12/08 07:55:31;;;;;;;2.40;1.80;;;22.10;45.00;;;;;;5113550;28;20208;-72
2021/12/08 07:57:58;;;;;;;1.85;1.70;;;22.20;45.10;;;;;;5096234;28;20196;-72
2021/12/08 08:00:38;;;;;;;2.15;1.95;;;22.10;44.90;;;;;;5109998;28;20209;-72
2021/12/08 08:03:05;;;;;;;2.20;1.83;;;22.10;45.00;;;;;;5075472;28;20326;-72
2021/12/08 08:05:33;;;;;;;1.98;1.75;;;22.10;45.00;;;;;;5093358;28;20169;-72
2021/12/08 08:08:04;;;;;;;1.77;1.60;;;22.10;45.00;;;;;;5095257;28;20177;-72
2021/12/08 08:10:41;;;;;;;1.70;1.50;;;22.10;45.00;;;;;;5094270;28;20166;-72
2021/12/08 08:13:09;;;;;;;1.55;1.40;;;22.10;45.00;;;;;;5093061;28;20181;-72
2021/12/08 08:15:43;;;;;;;2.10;1.65;;;22.20;45.10;;;;;;5075703;28;20226;-72
2021/12/08 08:18:12;;;;;;;2.17;1.92;;;22.10;45.00;;;;;;5092878;28;20173;-72
2021/12/08 08:20:48;;;;;;;1.83;1.55;;;22.10;45.00;;;;;;5092944;28;20205;-72
2021/12/08 08:23:19;;;;;;;1.50;1.40;;;22.20;45.00;;;;;;5075735;28;20201;-72
2021/12/08 08:25:49;;;;;;;1.40;1.30;;;22.10;45.00;;;;;;5110028;28;20265;-72
2021/12/08 08:28:16;;;;;;;1.60;1.50;;;22.20;45.10;;;;;;5092444;28;20611;-73
2021/12/08 08:31:01;;;;;;;1.88;1.77;;;22.10;45.00;;;;;;5093487;28;20188;-72
2021/12/08 08:33:28;;;;;;;1.83;1.70;;;22.10;45.00;;;;;;5112977;28;20214;-72
2021/12/08 08:36:04;;;;;;;1.48;1.33;;;22.10;45.00;;;;;;5113019;28;20186;-72
2021/12/08 08:39:02;;;;;;;2.55;1.40;;;22.10;45.00;;;;;;5095704;28;20184;-71
2021/12/08 08:41:37;;;;;;;1.45;1.33;;;22.20;45.10;;;;;;5082383;28;20605;-72
2021/12/08 08:44:15;;;;;;;1.70;1.27;;;22.10;45.00;;;;;;5075541;28;20200;-72
2021/12/08 08:46:52;;;;;;;1.80;1.70;;;22.20;45.00;;;;;;5092418;28;20181;-72
2021/12/08 08:49:26;;;;;;;1.50;1.40;;;22.10;44.90;;;;;;5093197;28;20173;-72
2021/12/08 08:52:09;;;;;;;1.42;1.33;;;22.10;44.90;;;;;;5075364;28;20196;-72
2021/12/08 08:54:44;;;;;;;3.00;1.55;;;22.10;45.00;;;;;;5093262;28;20201;-72
2021/12/08 08:57:18;;;;;;;1.50;1.40;;;22.10;45.00;;;;;;5074921;28;20173;-72
2021/12/08 08:59:51;;;;;;;1.48;1.38;;;22.20;45.10;;;;;;5074864;28;20205;-72
2021/12/08 09:02:25;;;;;;;1.58;1.35;;;22.20;45.10;;;;;;5098917;28;20173;-72
2021/12/08 09:04:59;;;;;;;1.30;1.20;;;22.20;45.10;;;;;;5075083;28;20200;-71
2021/12/08 09:07:35;;;;;;;1.42;1.33;;;22.20;45.00;;;;;;5125862;27;20306;-71
2021/12/08 09:10:19;;;;;;;1.50;1.40;;;22.20;45.00;;;;;;5091873;28;20189;-72
2021/12/08 09:12:56;;;;;;;1.65;1.00;;;22.10;44.90;;;;;;5091856;28;20212;-72
2021/12/08 09:15:43;;;;;;;1.45;1.35;;;22.10;45.00;;;;;;5087757;28;20191;-72
2021/12/08 09:18:18;;;;;;;1.70;1.60;;;22.10;45.00;;;;;;5072433;28;20258;-72
2021/12/08 09:21:00;;;;;;;1.50;1.25;;;22.20;45.10;;;;;;5074160;28;20223;-72
2021/12/08 09:23:57;;;;;;;1.60;1.35;;;22.20;45.10;;;;;;5093107;28;20287;-71
2021/12/08 09:26:26;;;;;;;1.42;1.33;;;22.10;45.00;;;;;;5088527;28;20678;-72
2021/12/08 09:29:00;;;;;;;1.83;1.63;;;22.10;45.00;;;;;;5091443;28;20184;-72
2021/12/08 09:31:36;;;;;;;1.65;1.55;;;22.10;45.00;;;;;;5092787;28;20169;-73
2021/12/08 09:34:31;;;;;;;1.77;1.67;;;22.20;45.10;;;;;;5091384;28;20200;-72
2021/12/08 09:37:06;;;;;;;1.85;1.67;;;22.20;45.20;;;;;;5107821;28;20227;-72
2021/12/08 09:39:59;;;;;;;1.70;1.48;;;22.10;45.00;;;;;;5092207;28;20259;-72
2021/12/08 09:42:39;;;;;;;1.60;1.50;;;22.20;45.10;;;;;;5092612;28;20169;-73
2021/12/08 09:45:12;;;;;;;2.38;2.03;;;22.20;45.10;;;;;;5092286;28;20283;-72
2021/12/08 09:47:38;;;;;;;2.97;1.90;;;22.20;45.10;;;;;;5091366;28;20166;-71
2021/12/08 09:50:09;;;;;;;2.08;1.98;;;22.10;45.00;;;;;;5091064;28;20203;-72
2021/12/08 09:52:35;;;;;;;1.58;1.48;;;22.20;45.10;;;;;;5088013;28;20189;-72
2021/12/08 09:55:02;;;;;;;2.17;1.73;;;22.10;45.00;;;;;;5087431;28;20240;-72
2021/12/08 09:57:29;;;;;;;2.97;1.77;;;22.20;45.20;;;;;;5090815;28;20181;-72
2021/12/08 09:59:56;;;;;;;1.80;1.70;;;22.10;45.00;;;;;;5125292;28;20585;-71
2021/12/08 10:02:34;;;;;;;2.10;1.80;;;22.20;45.10;;;;;;5107862;28;20168;-72
2021/12/08 10:05:13;;;;;;;1.90;1.80;;;22.10;45.10;;;;;;5091101;28;20208;-72
2021/12/08 10:07:40;;;;;;;1.70;1.60;;;22.20;45.20;;;;;;5091588;28;20259;-71
2021/12/08 10:10:11;;;;;;;1.60;1.50;;;22.10;45.10;;;;;;5095420;28;20678;-72
2021/12/08 10:12:37;;;;;;;1.50;1.40;;;22.20;45.20;;;;;;5093606;28;20193;-72
2021/12/08 10:15:08;;;;;;;1.80;1.70;;;22.20;45.20;;;;;;5074224;28;20208;-72
2021/12/08 10:17:34;;;;;;;1.58;1.48;;;22.20;45.20;;;;;;5074921;28;20274;-71
2021/12/08 10:20:39;;;;;;;1.88;1.50;;;22.20;45.10;;;;;;5077741;28;20236;-73
2021/12/08 10:23:39;;;;;;;1.40;1.30;;;22.20;45.20;;;;;;5069031;28;20201;-72
2021/12/08 10:26:10;;;;;;;1.50;1.40;;;22.10;45.20;;;;;;5095420;28;20177;-72
2021/12/08 10:28:45;;;;;;;1.33;1.23;;;22.10;45.20;;;;;;5091593;28;20185;-72
2021/12/08 10:31:38;;;;;;;1.55;1.45;;;22.20;45.20;;;;;;5091283;28;20189;-73
2021/12/08 10:36:56;;;;;;;1.70;1.60;;;22.20;45.20;;;;;;5092877;28;20177;-72
2021/12/08 10:39:33;;;;;;;1.50;1.40;;;22.20;45.10;;;;;;5099211;28;20208;-72
2021/12/08 10:42:04;;;;;;;1.70;1.40;;;22.20;45.20;;;;;;5098258;28;20184;-72
2021/12/08 10:44:39;;;;;;;1.60;1.30;;;22.10;45.10;;;;;;5081063;28;20559;-72
2021/12/08 10:47:07;;;;;;;1.42;1.33;;;22.20;45.20;;;;;;5094628;28;20177;-72
2021/12/08 10:54:52;;;;;;;1.20;1.13;;;22.20;45.20;;;;;;5114826;28;20207;-72
2021/12/08 10:57:37;;;;;;;2.78;1.40;;;22.10;45.10;;;;;;5080269;28;20219;-72
2021/12/08 11:00:34;;;;;;;1.40;1.30;;;22.20;45.10;;;;;;5074364;28;20201;-72
2021/12/08 11:03:07;;;;;;;1.40;1.30;;;22.20;45.10;;;;;;5075859;28;20221;-72
2021/12/08 11:05:47;;;;;;;1.33;1.23;;;22.20;45.10;;;;;;5088920;28;20181;-72
2021/12/08 11:08:19;;;;;;;1.15;1.02;;;22.20;45.20;;;;;;5111679;28;20539;-72
2021/12/08 11:10:52;;;;;;;1.15;1.05;;;22.20;45.20;;;;;;5115974;28;20188;-72
2021/12/08 11:13:26;;;;;;;1.13;1.10;;;22.20;45.20;;;;;;5114650;28;20299;-73
2021/12/08 11:16:25;;;;;;;1.20;1.10;;;22.20;45.20;;;;;;5131636;27;20172;-73
2021/12/08 11:19:03;;;;;;;2.10;1.15;;;22.20;45.20;;;;;;5113539;28;20715;-71
2021/12/08 11:21:36;;;;;;;1.67;1.08;;;22.20;45.20;;;;;;5114256;28;20190;-72
2021/12/08 11:24:15;;;;;;;1.40;1.30;;;22.20;45.20;;;;;;5115597;28;20207;-72
2021/12/08 11:26:48;;;;;;;2.22;1.30;;;22.20;45.20;;;;;;5114615;28;20180;-73
2021/12/08 11:29:27;;;;;;;1.08;1.00;;;22.20;45.20;;;;;;5115232;28;20363;-72
2021/12/08 11:31:59;;;;;;;1.10;1.10;;;22.20;45.10;;;;;;5115504;28;20169;-72
2021/12/08 11:34:31;;;;;;;1.15;1.08;;;22.20;45.30;;;;;;5114038;28;20208;-72
2021/12/08 11:37:02;;;;;;;1.00;0.82;;;22.20;45.20;;;;;;5097250;28;20172;-73
2021/12/08 11:39:38;;;;;;;1.00;1.00;;;22.20;45.20;;;;;;5113752;28;20202;-73
2021/12/08 11:42:25;;;;;;;1.30;1.20;;;22.20;45.20;;;;;;5096956;28;20236;-72
2021/12/08 11:44:55;;;;;;;1.52;1.00;;;22.20;45.20;;;;;;5113939;28;20195;-72
2021/12/08 11:47:28;;;;;;;1.30;1.20;;;22.20;45.20;;;;;;5094754;28;20212;-70
2021/12/08 11:50:00;;;;;;;1.00;1.00;;;22.20;45.20;;;;;;5093733;28;20242;-72
2021/12/08 11:52:32;;;;;;;1.23;0.90;;;22.20;45.20;;;;;;5093839;28;20173;-72
2021/12/08 11:55:12;;;;;;;0.95;0.95;;;22.20;45.20;;;;;;5093601;28;20235;-71
2021/12/08 11:57:46;;;;;;;0.98;0.98;;;22.20;45.20;;;;;;5093508;28;20189;-72
2021/12/08 12:00:22;;;;;;;1.33;0.90;;;22.20;45.20;;;;;;5093399;28;20196;-71
2021/12/08 12:02:56;;;;;;;1.20;1.10;;;22.20;45.20;;;;;;5110792;28;20195;-72
2021/12/08 12:05:47;;;;;;;2.17;1.20;;;22.20;45.20;;;;;;5092490;28;20181;-72
2021/12/08 12:08:18;;;;;;;0.90;0.90;;;22.20;45.80;;;;;;5092963;28;20177;-72
2021/12/08 12:10:51;;;;;;;1.13;0.90;;;22.20;45.20;;;;;;5093487;28;20587;-72
2021/12/08 12:13:18;;;;;;;1.75;1.10;;;22.20;45.20;;;;;;5092922;28;20236;-72
2021/12/08 12:15:50;;;;;;;1.00;0.90;;;22.20;45.30;;;;;;5093173;28;20188;-72
2021/12/08 12:18:19;;;;;;;1.30;1.00;;;22.20;45.30;;;;;;5093253;28;20681;-72
2021/12/08 12:20:57;;;;;;;0.90;0.90;;;22.20;45.20;;;;;;5094017;28;20211;-73
2021/12/08 12:23:44;;;;;;;0.80;0.80;;;22.20;45.30;;;;;;5094070;28;20204;-73
2021/12/08 12:26:22;;;;;;;1.23;1.00;;;22.20;45.30;;;;;;5075903;28;20189;-72
2021/12/08 12:29:25;;;;;;;1.00;0.82;;;22.20;45.30;;;;;;5092628;28;20204;-73
2021/12/08 12:32:21;;;;;;;1.15;1.05;;;22.20;45.30;;;;;;5074913;28;20772;-73
2021/12/08 12:34:51;;;;;;;1.00;1.00;;;22.20;45.30;;;;;;5109561;28;20204;-72
2021/12/08 12:37:17;;;;;;;1.85;1.00;;;22.20;45.30;;;;;;5106839;28;20169;-73
2021/12/08 12:39:49;;;;;;;1.20;1.10;;;22.20;45.30;;;;;;5092257;28;20213;-72
2021/12/08 12:42:17;;;;;;;1.15;0.90;;;22.20;45.30;;;;;;5092550;28;20185;-71
2021/12/08 12:45:05;;;;;;;1.52;1.10;;;22.20;45.30;;;;;;5092530;28;20250;-72
2021/12/08 12:47:32;;;;;;;1.17;1.10;;;22.20;45.30;;;;;;5092264;28;20173;-72
2021/12/08 12:50:00;;;;;;;1.25;1.20;;;22.20;45.30;;;;;;5092376;28;20185;-72
2021/12/08 12:52:43;;;;;;;1.35;0.90;;;22.20;45.30;;;;;;5092339;28;20184;-72
2021/12/08 12:55:17;;;;;;;1.60;1.00;;;22.20;45.30;;;;;;5093468;28;20222;-72
2021/12/08 12:58:02;;;;;;;0.98;0.98;;;22.20;45.40;;;;;;5091982;28;20181;-72
2021/12/08 13:01:02;;;;;;;1.13;1.02;;;22.20;45.30;;;;;;5075396;28;20216;-72
2021/12/08 13:03:47;;;;;;;1.08;1.05;;;22.20;45.30;;;;;;5091838;28;20634;-72
2021/12/08 13:06:36;;;;;;;1.38;0.93;;;22.20;45.30;;;;;;5092082;28;20181;-72
2021/12/08 13:09:02;;;;;;;1.27;1.00;;;22.20;45.40;;;;;;5091636;28;20276;-72
2021/12/08 13:11:59;;;;;;;1.25;1.00;;;22.20;45.40;;;;;;5092106;28;20667;-72
2021/12/08 13:14:30;;;;;;;1.10;1.00;;;22.20;45.40;;;;;;5091695;28;20200;-72
2021/12/08 13:17:21;;;;;;;0.93;0.93;;;22.20;45.40;;;;;;5075198;28;20189;-71
2021/12/08 13:19:52;;;;;;;1.35;1.00;;;22.20;45.40;;;;;;5089585;28;20215;-72
2021/12/08 13:22:54;;;;;;;1.70;1.20;;;22.20;45.40;;;;;;5095026;28;20194;-72
2021/12/08 13:25:52;;;;;;;1.00;1.00;;;22.20;45.40;;;;;;5111939;28;20708;-72
2021/12/08 13:28:58;;;;;;;1.00;0.90;;;22.20;45.40;;;;;;5112027;28;20172;-72
2021/12/08 13:31:38;;;;;;;1.00;1.00;;;22.20;45.40;;;;;;5100641;28;20199;-73
2021/12/08 13:34:10;;;;;;;0.90;0.90;;;22.20;45.40;;;;;;5094840;28;20204;-72
2021/12/08 13:36:44;;;;;;;1.00;1.00;;;22.20;45.40;;;;;;5095143;28;20176;-73
2021/12/08 13:39:20;;;;;;;1.10;1.10;;;22.20;45.30;;;;;;5111520;28;20206;-72
2021/12/08 13:42:01;;;;;;;1.83;1.10;;;22.20;45.40;;;;;;5112011;28;20172;-70
2021/12/08 13:44:36;;;;;;;0.85;0.85;;;22.20;45.40;;;;;;5111580;28;20256;-73
2021/12/08 13:47:31;;;;;;;1.10;1.00;;;22.20;45.50;;;;;;5094871;28;20183;-73
2021/12/08 13:50:11;;;;;;;0.90;0.88;;;22.20;45.40;;;;;;5111724;28;20685;-73
2021/12/08 13:52:43;;;;;;;1.27;1.17;;;22.20;45.40;;;;;;5111884;28;20172;-73
2021/12/08 13:55:09;;;;;;;0.82;0.82;;;22.10;45.40;;;;;;5094606;28;20265;-73
2021/12/08 13:57:40;;;;;;;1.23;1.13;;;22.20;45.50;;;;;;5111616;28;20191;-72
2021/12/08 14:00:52;;;;;;;1.25;1.15;;;22.20;45.40;;;;;;5111482;28;20204;-73
2021/12/08 14:03:40;;;;;;;1.30;0.98;;;22.20;45.50;;;;;;5111185;28;20702;-73
2021/12/08 14:06:08;;;;;;;1.10;1.00;;;22.20;45.60;;;;;;5111615;28;20180;-73
2021/12/08 14:08:40;;;;;;;1.13;1.00;;;22.20;45.50;;;;;;5094615;28;20554;-73
2021/12/08 14:11:21;;;;;;;1.13;1.02;;;22.20;45.50;;;;;;5094537;28;20176;-73
2021/12/08 14:13:51;;;;;;;1.63;1.40;;;22.20;45.70;;;;;;5110795;28;20578;-73
2021/12/08 14:16:24;;;;;;;1.05;0.95;;;22.20;45.50;;;;;;5090907;28;20189;-73
2021/12/08 14:18:58;;;;;;;1.10;1.10;;;22.10;45.40;;;;;;5085829;28;20710;-73
2021/12/08 14:21:33;;;;;;;0.70;0.70;;;22.20;45.50;;;;;;5073788;28;20302;-73